Time;durP1;ratioP1;P1;durP2;ratioP2;P2;SDS_P1;SDS_P2;PMS_P1;PMS_P2;Temp;Humidity;BMP_temperature;BMP_pressure;BME280_temperature;BME280_humidity;BME280_pressure;Samples;Min_cycle;Max_cycle;Signal;HPM_P1;HPM_P2
2022/09/09 00:00:25;;;;;;;4.55;1.38;;;;;;;17.37;67.62;100683.81;6307216;22;20424;-59
2022/09/09 00:03:02;;;;;;;2.42;1.35;;;;;;;17.46;67.58;100683.97;6307250;22;20078;-58
2022/09/09 00:05:44;;;;;;;1.95;1.00;;;;;;;17.44;67.59;100686.25;6307741;22;20003;-59
2022/09/09 00:08:19;;;;;;;2.15;1.17;;;;;;;17.37;67.72;100681.03;6307134;22;20034;-58
2022/09/09 00:10:48;;;;;;;4.70;1.25;;;;;;;17.40;67.64;100677.59;6308183;22;20003;-59
2022/09/09 00:13:31;;;;;;;2.72;1.10;;;;;;;17.42;67.68;100677.31;6306973;22;20038;-58
2022/09/09 00:16:23;;;;;;;1.35;0.88;;;;;;;17.46;67.04;100680.34;6306712;22;20003;-58
2022/09/09 00:19:05;;;;;;;2.60;1.30;;;;;;;17.38;67.71;100677.06;6308145;22;20287;-57
2022/09/09 00:21:43;;;;;;;2.40;1.10;;;;;;;17.41;67.74;100681.25;6306895;22;20007;-58
2022/09/09 00:24:18;;;;;;;2.08;0.95;;;;;;;17.42;67.22;100671.69;6307839;22;20083;-58
2022/09/09 00:26:48;;;;;;;2.72;1.10;;;;;;;17.34;67.36;100676.00;6307154;22;20399;-58
2022/09/09 00:29:33;;;;;;;2.17;0.95;;;;;;;17.34;67.30;100676.00;6307112;22;20011;-59
2022/09/09 00:32:11;;;;;;;2.78;1.10;;;;;;;17.32;67.64;100669.03;6307119;22;20003;-58
2022/09/09 00:34:42;;;;;;;2.03;0.93;;;;;;;17.34;67.30;100670.41;6307629;22;20427;-59
2022/09/09 00:37:08;;;;;;;1.73;1.00;;;;;;;17.32;67.42;100671.81;6305860;22;20083;-59
2022/09/09 00:39:47;;;;;;;2.63;1.08;;;;;;;17.30;67.52;100663.72;6307547;22;20003;-59
2022/09/09 00:42:14;;;;;;;2.60;1.08;;;;;;;17.22;67.37;100666.38;6306399;22;20007;-58
2022/09/09 00:45:01;;;;;;;2.60;1.08;;;;;;;17.18;67.67;100657.75;6307252;22;20007;-59
2022/09/09 00:47:46;;;;;;;1.92;1.13;;;;;;;17.27;67.42;100655.09;6307234;22;20030;-58
2022/09/09 00:50:43;;;;;;;1.70;1.10;;;;;;;17.26;67.10;100651.44;6306913;22;20015;-58
2022/09/09 00:53:37;;;;;;;2.30;1.20;;;;;;;17.32;67.10;100649.38;6307559;22;20058;-58
2022/09/09 00:56:21;;;;;;;3.13;0.93;;;;;;;17.29;67.16;100655.59;6306724;22;20300;-58
2022/09/09 00:59:15;;;;;;;2.60;0.85;;;;;;;17.28;67.41;100649.16;6307354;22;20391;-58
2022/09/09 01:01:41;;;;;;;3.25;1.00;;;;;;;17.13;67.64;100646.56;6250378;22;20014;-58
2022/09/09 01:04:16;;;;;;;3.05;1.10;;;;;;;17.16;67.80;100649.59;6306521;22;20004;-58
2022/09/09 01:06:43;;;;;;;1.75;0.90;;;;;;;17.16;67.38;100651.59;6307506;22;20098;-58
2022/09/09 01:09:37;;;;;;;2.08;1.00;;;;;;;17.24;67.33;100656.50;6307633;22;20007;-60
2022/09/09 01:12:24;;;;;;;2.05;1.08;;;;;;;17.21;67.58;100645.88;6305749;22;20026;-58
2022/09/09 01:14:55;;;;;;;2.42;1.10;;;;;;;17.09;67.75;100645.50;6307210;22;20007;-59
2022/09/09 01:17:25;;;;;;;3.50;1.13;;;;;;;17.11;67.62;100648.84;6305638;22;20309;-58
2022/09/09 01:20:13;;;;;;;2.90;1.05;;;;;;;17.20;67.41;100651.81;6307172;22;20007;-58
2022/09/09 01:23:16;;;;;;;2.70;1.30;;;;;;;17.16;67.51;100644.00;6231822;22;20007;-58
2022/09/09 01:26:18;;;;;;;1.85;1.10;;;;;;;17.20;67.53;100640.59;6305154;22;20065;-58
2022/09/09 01:28:47;;;;;;;3.50;0.98;;;;;;;17.07;67.96;100643.00;6306633;22;20007;-58
2022/09/09 01:31:17;;;;;;;1.67;1.10;;;;;;;17.07;68.05;100640.22;6307268;22;20009;-58
2022/09/09 01:33:43;;;;;;;3.20;1.58;;;;;;;17.08;67.96;100632.63;6306843;22;20334;-58
2022/09/09 01:36:35;;;;;;;3.00;1.67;;;;;;;17.17;67.56;100636.41;6306410;22;20066;-58
2022/09/09 01:39:01;;;;;;;4.32;1.23;;;;;;;17.03;68.20;100627.09;6305910;22;20013;-58
2022/09/09 01:41:27;;;;;;;2.33;1.10;;;;;;;17.00;68.28;100631.34;6307053;22;20070;-58
2022/09/09 01:43:54;;;;;;;4.55;1.30;;;;;;;17.01;68.17;100630.19;6306998;22;20007;-58
2022/09/09 01:46:21;;;;;;;4.40;1.48;;;;;;;16.99;68.20;100624.06;6304894;22;20087;-59
2022/09/09 01:48:48;;;;;;;2.85;1.50;;;;;;;16.96;68.48;100623.84;6306760;22;20011;-58
2022/09/09 01:51:13;;;;;;;2.45;1.20;;;;;;;16.90;68.45;100621.09;6307355;22;20141;-58
2022/09/09 01:53:41;;;;;;;2.88;1.50;;;;;;;16.98;68.50;100627.16;6305320;22;20006;-58
2022/09/09 01:56:39;;;;;;;2.38;1.35;;;;;;;17.02;68.25;100617.03;6306672;22;20007;-58
2022/09/09 01:59:35;;;;;;;2.85;1.40;;;;;;;17.05;68.07;100619.22;6307067;22;20466;-58
2022/09/09 02:02:14;;;;;;;3.58;1.48;;;;;;;16.94;68.46;100610.13;6306298;22;20034;-58
2022/09/09 02:04:45;;;;;;;4.25;1.80;;;;;;;16.97;68.32;100620.72;6306576;22;20019;-58
2022/09/09 02:07:38;;;;;;;2.80;1.38;;;;;;;16.98;68.24;100610.31;6306258;22;20029;-58
2022/09/09 02:10:15;;;;;;;3.88;1.52;;;;;;;16.97;68.46;100600.25;6307352;22;20053;-58
2022/09/09 02:12:45;;;;;;;3.75;1.83;;;;;;;16.88;68.45;100605.72;6307459;22;20014;-59
2022/09/09 02:15:32;;;;;;;6.72;1.65;;;;;;;16.92;68.37;100603.97;6307100;22;20007;-58
2022/09/09 02:18:01;;;;;;;5.40;1.80;;;;;;;16.81;68.66;100597.66;6306626;22;20488;-58
2022/09/09 02:20:28;;;;;;;3.47;1.70;;;;;;;16.81;68.83;100616.44;6307200;22;20007;-58
2022/09/09 02:22:55;;;;;;;3.80;2.08;;;;;;;16.76;68.94;100611.75;6305614;22;20043;-58
2022/09/09 02:25:25;;;;;;;3.80;1.80;;;;;;;16.78;68.87;100608.63;6306887;22;20007;-59
2022/09/09 02:27:53;;;;;;;7.68;2.05;;;;;;;16.74;69.15;100611.25;6306558;22;20106;-58
2022/09/09 02:30:20;;;;;;;2.42;1.80;;;;;;;16.77;68.85;100598.56;6306558;22;20007;-58
2022/09/09 02:32:47;;;;;;;3.97;1.88;;;;;;;16.81;68.87;100600.47;6306742;22;20050;-58
2022/09/09 02:35:15;;;;;;;9.18;2.00;;;;;;;16.70;69.09;100596.09;6305762;22;20443;-58
2022/09/09 02:37:42;;;;;;;2.28;1.67;;;;;;;16.73;68.91;100595.53;6306913;22;20018;-58
2022/09/09 02:40:11;;;;;;;5.18;1.88;;;;;;;16.63;69.33;100595.66;6306717;22;20014;-58
2022/09/09 02:42:45;;;;;;;3.42;1.52;;;;;;;16.76;69.05;100599.72;6306541;22;20018;-58
2022/09/09 02:45:15;;;;;;;4.57;1.92;;;;;;;16.61;69.64;100592.31;6307242;22;20003;-58
2022/09/09 02:48:06;;;;;;;3.70;1.70;;;;;;;16.67;69.32;100582.72;6306455;22;19999;-58
2022/09/09 02:50:35;;;;;;;3.15;1.65;;;;;;;16.63;69.46;100593.69;6305648;22;20073;-58
2022/09/09 02:53:16;;;;;;;4.15;1.85;;;;;;;16.67;69.14;100600.34;6307001;22;20000;-58
2022/09/09 02:55:55;;;;;;;5.53;2.00;;;;;;;16.55;69.69;100604.72;6306036;22;20011;-58
2022/09/09 02:58:21;;;;;;;5.10;1.45;;;;;;;16.56;69.75;100597.97;6306039;22;20007;-59
2022/09/09 03:00:48;;;;;;;4.80;2.10;;;;;;;16.52;69.69;100605.31;6307042;22;20018;-58
2022/09/09 03:03:16;;;;;;;4.18;1.52;;;;;;;16.60;69.50;100604.66;6305102;22;19999;-58
2022/09/09 03:05:41;;;;;;;5.47;2.20;;;;;;;16.62;69.71;100607.97;6306121;22;20003;-58
2022/09/09 03:08:07;;;;;;;4.78;1.60;;;;;;;16.61;69.61;100607.16;6306117;22;20090;-58
2022/09/09 03:10:32;;;;;;;7.72;1.95;;;;;;;16.64;69.53;100605.72;6305459;22;20327;-58
2022/09/09 03:12:58;;;;;;;5.63;1.80;;;;;;;16.62;69.75;100607.97;6306662;22;20000;-58
2022/09/09 03:15:23;;;;;;;6.13;1.70;;;;;;;16.58;69.94;100604.94;6305981;22;19999;-58
2022/09/09 03:17:48;;;;;;;5.28;1.70;;;;;;;16.61;69.70;100604.34;6305244;22;20034;-58
2022/09/09 03:20:14;;;;;;;4.70;1.92;;;;;;;16.58;69.71;100618.13;6306278;22;20027;-59
2022/09/09 03:22:40;;;;;;;4.90;1.80;;;;;;;16.54;70.05;100617.03;6306058;22;20411;-58
2022/09/09 03:25:06;;;;;;;5.32;1.60;;;;;;;16.52;70.02;100610.91;6305718;22;20174;-58
2022/09/09 03:27:32;;;;;;;4.28;1.55;;;;;;;16.59;70.02;100619.81;6306063;22;20415;-59
2022/09/09 03:29:57;;;;;;;7.22;1.60;;;;;;;16.64;69.95;100619.72;6305203;22;20011;-58
2022/09/09 03:32:25;;;;;;;3.72;1.63;;;;;;;16.58;70.02;100620.91;6305425;22;20386;-58
2022/09/09 03:34:51;;;;;;;4.75;1.58;;;;;;;16.55;70.34;100627.13;6307654;22;20030;-58
2022/09/09 03:37:18;;;;;;;6.45;1.60;;;;;;;16.56;70.53;100617.59;6309158;22;20019;-58
2022/09/09 03:39:43;;;;;;;5.07;1.90;;;;;;;16.60;70.15;100611.09;6308753;22;20327;-58
2022/09/09 03:42:09;;;;;;;3.30;1.30;;;;;;;16.53;70.30;100613.41;6310312;22;20011;-58
2022/09/09 03:44:35;;;;;;;4.65;1.58;;;;;;;16.53;70.52;100606.97;6309978;22;20395;-58
2022/09/09 03:47:00;;;;;;;2.63;1.48;;;;;;;16.55;70.21;100608.34;6308546;22;20015;-58
2022/09/09 03:49:28;;;;;;;7.22;1.80;;;;;;;16.56;70.24;100612.00;6309105;22;20011;-58
2022/09/09 03:51:54;;;;;;;5.00;1.50;;;;;;;16.50;70.59;100611.19;6309225;22;20419;-58
2022/09/09 03:54:19;;;;;;;5.78;1.33;;;;;;;16.52;70.47;100611.75;6308932;22;20082;-58
2022/09/09 03:56:45;;;;;;;4.00;1.40;;;;;;;16.54;70.59;100606.66;6310085;22;20128;-58
2022/09/09 03:59:10;;;;;;;4.13;1.42;;;;;;;16.56;70.38;100603.59;6308737;22;20003;-58
2022/09/09 04:01:35;;;;;;;6.75;1.85;;;;;;;16.49;70.96;100605.91;6309059;22;20011;-58
2022/09/09 04:04:02;;;;;;;6.22;1.67;;;;;;;16.45;70.80;100605.66;6309562;22;20030;-58
2022/09/09 04:06:27;;;;;;;4.50;1.60;;;;;;;16.45;70.88;100605.66;6308656;22;20014;-58
2022/09/09 04:08:53;;;;;;;4.57;2.00;;;;;;;16.40;71.25;100600.13;6309269;22;20007;-58
2022/09/09 04:11:18;;;;;;;4.93;1.73;;;;;;;16.42;71.16;100593.09;6309236;22;20477;-58
2022/09/09 04:13:44;;;;;;;5.35;1.95;;;;;;;16.45;71.07;100595.28;6308961;22;20003;-58
2022/09/09 04:16:11;;;;;;;5.88;1.80;;;;;;;16.42;71.29;100595.88;6309708;22;20350;-59
2022/09/09 04:18:37;;;;;;;4.00;1.73;;;;;;;16.35;71.36;100601.03;6308851;22;20416;-58
2022/09/09 04:21:03;;;;;;;6.43;1.77;;;;;;;16.38;71.67;100602.38;6308824;22;20000;-58
2022/09/09 04:23:29;;;;;;;6.40;1.75;;;;;;;16.30;71.78;100595.47;6309874;22;20489;-57
2022/09/09 04:25:55;;;;;;;5.10;1.80;;;;;;;16.35;71.91;100592.63;6308682;22;19999;-57
2022/09/09 04:28:23;;;;;;;6.28;1.63;;;;;;;16.41;71.72;100590.59;6308114;22;20000;-58
2022/09/09 04:30:49;;;;;;;7.13;2.30;;;;;;;16.40;71.65;100586.97;6310821;22;20207;-58
2022/09/09 04:33:15;;;;;;;3.80;1.77;;;;;;;16.41;71.70;100588.63;6309474;22;20003;-58
2022/09/09 04:35:49;;;;;;;7.03;1.80;;;;;;;16.42;71.78;100578.25;6308984;22;20003;-58
2022/09/09 04:38:15;;;;;;;8.32;1.83;;;;;;;16.36;71.90;100590.66;6309132;22;20057;-58
2022/09/09 04:40:46;;;;;;;9.07;1.77;;;;;;;16.41;71.85;100583.00;6309804;22;19999;-59
2022/09/09 04:43:12;;;;;;;4.95;1.80;;;;;;;16.37;71.92;100590.34;6308794;22;20049;-60
2022/09/09 04:45:37;;;;;;;7.35;1.88;;;;;;;16.45;71.66;100591.66;6308491;22;20003;-59
2022/09/09 04:48:03;;;;;;;6.60;2.00;;;;;;;16.37;72.12;100579.16;6306819;22;20031;-59
2022/09/09 04:50:29;;;;;;;7.13;2.03;;;;;;;16.38;71.88;100578.00;6306494;22;20012;-58
2022/09/09 04:52:54;;;;;;;9.25;2.47;;;;;;;16.43;71.71;100574.34;6306698;22;20327;-59
2022/09/09 04:55:19;;;;;;;6.30;2.00;;;;;;;16.44;71.89;100585.22;6306687;22;20045;-59
2022/09/09 04:57:45;;;;;;;6.85;2.00;;;;;;;16.40;72.12;100569.31;6307190;22;20336;-59
2022/09/09 05:00:12;;;;;;;4.47;1.77;;;;;;;16.42;71.60;100576.28;6307990;22;20074;-58
2022/09/09 05:02:42;;;;;;;5.57;1.85;;;;;;;16.39;72.22;100576.06;6306040;22;20082;-58
2022/09/09 05:05:07;;;;;;;6.78;2.40;;;;;;;16.37;72.38;100573.53;6307558;22;20002;-58
2022/09/09 05:07:32;;;;;;;3.75;1.73;;;;;;;16.44;72.03;100579.63;6307290;22;20000;-58
2022/09/09 05:09:58;;;;;;;8.25;1.77;;;;;;;16.39;72.24;100570.47;6305825;22;20007;-58
2022/09/09 05:12:25;;;;;;;7.10;2.03;;;;;;;16.39;72.27;100576.91;6308013;22;19999;-57
2022/09/09 05:14:53;;;;;;;7.38;1.80;;;;;;;16.46;72.17;100579.31;6307286;22;20053;-57
2022/09/09 05:17:19;;;;;;;4.63;1.48;;;;;;;16.46;72.13;100582.13;6306220;22;20315;-58
2022/09/09 05:19:44;;;;;;;5.20;2.10;;;;;;;16.45;71.93;100575.69;6307673;22;20066;-58
2022/09/09 05:22:11;;;;;;;3.72;1.52;;;;;;;16.49;72.01;100580.69;6307387;22;20003;-59
2022/09/09 05:24:38;;;;;;;5.10;1.60;;;;;;;16.45;71.96;100574.84;6306251;22;19995;-58
2022/09/09 05:27:05;;;;;;;4.40;1.90;;;;;;;16.42;72.35;100572.66;6307336;22;20404;-58
2022/09/09 05:29:33;;;;;;;6.38;1.75;;;;;;;16.38;72.39;100564.00;6307070;22;20098;-58
2022/09/09 05:31:58;;;;;;;6.88;1.50;;;;;;;16.37;72.37;100562.34;6306353;22;20007;-58
2022/09/09 05:34:24;;;;;;;3.67;1.60;;;;;;;16.37;72.44;100569.91;6307187;22;20038;-58
2022/09/09 05:36:49;;;;;;;5.60;1.75;;;;;;;16.39;72.15;100565.69;6307650;22;20037;-58
2022/09/09 05:39:14;;;;;;;7.35;1.85;;;;;;;16.36;72.38;100565.47;6306661;22;20086;-58
2022/09/09 05:41:40;;;;;;;10.55;2.00;;;;;;;16.34;72.21;100571.34;6303277;22;20062;-58
2022/09/09 05:44:06;;;;;;;5.85;1.95;;;;;;;16.36;72.58;100576.66;6306949;22;20070;-58
2022/09/09 05:46:31;;;;;;;8.05;1.65;;;;;;;16.37;72.77;100584.75;6306300;22;20423;-58
2022/09/09 05:48:58;;;;;;;6.43;2.20;;;;;;;16.38;72.69;100575.19;6306728;22;20437;-58
2022/09/09 05:51:27;;;;;;;3.63;1.80;;;;;;;16.42;72.53;100589.44;6306609;22;20003;-58
2022/09/09 05:53:54;;;;;;;5.20;1.77;;;;;;;16.29;73.06;100582.59;6306110;22;20007;-58
2022/09/09 05:56:22;;;;;;;9.10;1.80;;;;;;;16.33;73.03;100589.28;6306839;22;20050;-58
2022/09/09 05:58:49;;;;;;;9.20;2.17;;;;;;;16.34;73.17;100592.91;6304722;22;20319;-58
2022/09/09 06:01:17;;;;;;;6.82;1.92;;;;;;;16.38;72.64;100580.81;6307498;22;19995;-58
2022/09/09 06:03:44;;;;;;;9.55;1.95;;;;;;;16.33;73.21;100594.88;6307238;22;20031;-58
2022/09/09 06:06:13;;;;;;;8.32;2.22;;;;;;;16.37;73.09;100595.13;6306475;22;20042;-58
2022/09/09 06:08:40;;;;;;;5.10;1.60;;;;;;;16.41;72.96;100585.81;6306448;22;20078;-58
2022/09/09 06:11:07;;;;;;;7.28;2.05;;;;;;;16.32;73.31;100578.38;6305919;22;20003;-58
2022/09/09 06:13:33;;;;;;;7.00;1.75;;;;;;;16.37;73.41;100587.56;6306033;22;20061;-58
2022/09/09 06:15:59;;;;;;;8.73;1.85;;;;;;;16.42;73.38;100600.66;6304825;22;20011;-58
2022/09/09 06:18:25;;;;;;;7.35;1.85;;;;;;;16.51;73.19;100592.44;6305599;22;20316;-58
2022/09/09 06:21:04;;;;;;;9.55;1.80;;;;;;;16.57;72.50;100588.44;6305866;22;20439;-58
2022/09/09 06:23:30;;;;;;;6.80;2.03;;;;;;;16.55;72.92;100591.53;6306864;22;20018;-58
2022/09/09 06:26:13;;;;;;;8.60;2.03;;;;;;;16.62;72.86;100602.38;6306323;22;20004;-58
2022/09/09 06:28:39;;;;;;;7.38;1.90;;;;;;;16.59;72.74;100583.38;6305641;22;20323;-58
2022/09/09 06:31:07;;;;;;;9.40;2.20;;;;;;;16.55;72.72;100590.72;6307308;22;20011;-59
2022/09/09 06:33:39;;;;;;;7.65;2.15;;;;;;;16.55;72.92;100593.53;6306476;22;20355;-59
2022/09/09 06:36:05;;;;;;;10.10;1.90;;;;;;;16.59;72.82;100603.00;6305621;22;19999;-58
2022/09/09 06:38:30;;;;;;;6.15;1.85;;;;;;;16.61;72.39;100595.09;6305472;22;20423;-59
2022/09/09 06:40:57;;;;;;;10.05;2.22;;;;;;;16.60;72.87;100590.66;6304705;22;20106;-59
2022/09/09 06:43:23;;;;;;;8.75;2.70;;;;;;;16.61;72.56;100583.91;6306867;22;20007;-59
2022/09/09 06:46:00;;;;;;;8.07;1.75;;;;;;;16.63;71.80;100590.88;6306194;22;20022;-59
2022/09/09 06:48:27;;;;;;;7.07;2.10;;;;;;;16.65;72.38;100579.34;6303248;22;20018;-58
2022/09/09 06:51:04;;;;;;;7.82;2.38;;;;;;;16.67;72.21;100588.31;6306740;22;20355;-59
2022/09/09 06:53:33;;;;;;;8.20;2.50;;;;;;;16.71;71.92;100586.56;6305829;22;20014;-58
2022/09/09 06:55:58;;;;;;;6.60;1.88;;;;;;;16.88;72.71;100586.09;6305480;22;19999;-59
2022/09/09 06:58:24;;;;;;;3.40;1.42;;;;;;;17.21;72.12;100586.16;6306395;22;20074;-59
2022/09/09 07:00:49;;;;;;;7.00;1.92;;;;;;;17.27;71.42;100590.56;6305364;22;20074;-58
2022/09/09 07:03:14;;;;;;;9.50;2.00;;;;;;;17.32;70.43;100585.69;6305498;22;20003;-59
2022/09/09 07:05:40;;;;;;;4.88;1.58;;;;;;;17.60;70.24;100580.19;6306589;22;20498;-59
2022/09/09 07:08:05;;;;;;;9.90;1.88;;;;;;;17.52;69.34;100586.50;6306443;22;20003;-59
2022/09/09 07:10:31;;;;;;;5.55;1.70;;;;;;;17.69;69.67;100598.00;6304611;22;20059;-58
2022/09/09 07:12:56;;;;;;;4.97;1.63;;;;;;;17.59;69.37;100581.34;6307682;22;20346;-58
2022/09/09 07:15:22;;;;;;;8.68;1.80;;;;;;;17.67;69.68;100595.50;6305859;22;20376;-59
2022/09/09 07:17:48;;;;;;;6.57;1.83;;;;;;;17.74;69.37;100589.50;6304899;22;20003;-58
2022/09/09 07:20:14;;;;;;;4.68;1.30;;;;;;;17.83;69.05;100582.06;6306651;22;20473;-58
2022/09/09 07:22:40;;;;;;;11.88;1.95;;;;;;;17.58;68.84;100586.13;6305624;22;20007;-58
2022/09/09 07:25:06;;;;;;;5.90;1.90;;;;;;;17.57;69.49;100587.28;6304365;22;20004;-58
2022/09/09 07:27:31;;;;;;;9.98;2.08;;;;;;;17.50;68.81;100583.19;6305960;22;20007;-60
2022/09/09 07:29:57;;;;;;;7.47;2.03;;;;;;;17.58;69.75;100586.13;6306487;22;20003;-58
2022/09/09 07:32:22;;;;;;;8.57;1.90;;;;;;;17.52;69.42;100580.88;6305156;22;20385;-58
2022/09/09 07:34:47;;;;;;;7.35;1.90;;;;;;;17.46;69.42;100588.56;6305781;22;20008;-58
2022/09/09 07:37:13;;;;;;;9.60;2.20;;;;;;;17.35;69.97;100587.06;6305346;22;20086;-58
2022/09/09 07:39:39;;;;;;;5.13;1.85;;;;;;;17.30;70.08;100595.56;6305595;22;19999;-58
2022/09/09 07:42:04;;;;;;;14.60;2.70;;;;;;;17.27;70.19;100588.59;6306293;22;20434;-57
2022/09/09 07:44:32;;;;;;;8.82;2.53;;;;;;;17.22;69.93;100597.09;6304634;22;20053;-57
2022/09/09 07:46:57;;;;;;;7.28;2.00;;;;;;;17.21;70.28;100592.59;6306768;22;20011;-58
2022/09/09 07:49:22;;;;;;;6.80;2.10;;;;;;;17.12;70.80;100583.22;6304095;22;20027;-57
2022/09/09 07:51:49;;;;;;;11.10;2.60;;;;;;;17.14;70.99;100586.56;6305495;22;20003;-57
2022/09/09 07:54:16;;;;;;;7.30;2.38;;;;;;;17.17;70.99;100585.94;6306293;22;20025;-58
2022/09/09 07:56:42;;;;;;;8.18;2.30;;;;;;;17.21;70.55;100587.00;6305780;22;20090;-58
2022/09/09 07:59:08;;;;;;;6.63;2.20;;;;;;;17.26;70.51;100589.75;6304831;22;20014;-58
2022/09/09 08:01:38;;;;;;;10.50;2.58;;;;;;;17.29;69.96;100585.47;6306456;22;20003;-58
2022/09/09 08:04:10;;;;;;;7.35;2.75;;;;;;;17.27;70.07;100594.19;6306474;22;20073;-57
2022/09/09 08:06:39;;;;;;;11.50;2.37;;;;;;;17.32;69.71;100596.09;6304725;22;20003;-58
2022/09/09 08:09:05;;;;;;;10.05;2.40;;;;;;;17.28;69.90;100597.84;6306127;22;20301;-58
2022/09/09 08:11:32;;;;;;;13.65;2.47;;;;;;;17.30;69.94;100593.59;6305252;22;20008;-58
2022/09/09 08:13:58;;;;;;;7.47;2.30;;;;;;;17.30;70.08;100579.56;6305584;22;20327;-58
2022/09/09 08:16:27;;;;;;;8.65;1.70;;;;;;;17.28;69.62;100592.22;6305779;22;20010;-59
2022/09/09 08:18:53;;;;;;;8.32;1.80;;;;;;;17.31;70.25;100586.84;6305227;22;20049;-59
2022/09/09 08:21:23;;;;;;;9.15;2.35;;;;;;;17.31;69.82;100586.84;6305993;22;20013;-59
2022/09/09 08:23:52;;;;;;;13.10;3.25;;;;;;;17.38;69.29;100586.47;6307108;22;20023;-60
2022/09/09 08:26:23;;;;;;;8.80;2.10;;;;;;;17.33;69.31;100592.13;6306287;22;20510;-59
2022/09/09 08:28:51;;;;;;;7.72;2.10;;;;;;;17.37;69.74;100588.44;6307375;22;20010;-60
2022/09/09 08:31:22;;;;;;;7.38;1.77;;;;;;;17.41;68.70;100597.09;6305643;22;20035;-59
2022/09/09 08:33:48;;;;;;;7.50;1.60;;;;;;;17.45;68.53;100597.28;6307490;22;20027;-59
2022/09/09 08:36:19;;;;;;;8.30;2.03;;;;;;;17.47;68.00;100595.00;6307929;22;20729;-57
2022/09/09 08:38:48;;;;;;;5.63;1.92;;;;;;;17.47;68.45;100595.84;6308173;22;20007;-58
2022/09/09 08:41:41;;;;;;;9.68;2.25;;;;;;;17.52;68.11;100620.19;6305686;22;20867;-58
2022/09/09 08:44:22;;;;;;;9.80;2.40;;;;;;;17.48;67.96;100605.09;6307269;22;20007;-58
2022/09/09 08:47:12;;;;;;;8.02;1.95;;;;;;;17.41;68.35;100605.50;6308168;22;20003;-58
2022/09/09 08:50:06;;;;;;;7.25;1.85;;;;;;;17.40;68.28;100603.81;6305104;22;20015;-57
2022/09/09 08:53:11;;;;;;;9.52;2.00;;;;;;;17.40;67.95;100607.44;6308120;22;20007;-58
2022/09/09 08:55:59;;;;;;;6.57;1.90;;;;;;;17.43;68.12;100603.22;6307096;22;20052;-59
2022/09/09 08:58:32;;;;;;;8.13;2.20;;;;;;;17.47;68.19;100609.03;6306853;22;20410;-59
2022/09/09 09:01:16;;;;;;;9.48;1.98;;;;;;;17.48;67.54;100608.72;6307639;22;20003;-59
2022/09/09 09:04:00;;;;;;;5.10;1.98;;;;;;;17.46;67.80;100611.03;6307375;22;20004;-59
2022/09/09 09:06:35;;;;;;;6.38;1.90;;;;;;;17.39;68.13;100633.84;6307087;22;20004;-59
2022/09/09 09:09:05;;;;;;;7.82;1.83;;;;;;;17.41;67.71;100623.16;6306179;22;20585;-59
2022/09/09 09:11:45;;;;;;;7.45;1.77;;;;;;;17.43;67.56;100629.28;6306508;22;20015;-59
2022/09/09 09:14:21;;;;;;;8.23;2.10;;;;;;;17.36;67.77;100623.22;6307743;22;20141;-59
2022/09/09 09:17:20;;;;;;;9.75;1.88;;;;;;;17.41;67.75;100623.16;6306602;22;20003;-59
2022/09/09 09:19:47;;;;;;;10.63;2.25;;;;;;;17.40;67.60;100615.88;6278511;22;20014;-59
2022/09/09 09:22:31;;;;;;;10.82;2.20;;;;;;;17.46;67.93;100619.44;6307879;22;20019;-59
2022/09/09 09:25:10;;;;;;;9.02;2.25;;;;;;;17.41;68.47;100630.75;6307064;22;20006;-59
2022/09/09 09:28:05;;;;;;;10.43;2.13;;;;;;;17.46;68.13;100627.03;6307778;22;20327;-59
2022/09/09 09:30:41;;;;;;;9.73;2.00;;;;;;;17.38;68.99;100629.38;6306149;22;20090;-59
2022/09/09 09:33:40;;;;;;;11.20;2.28;;;;;;;17.40;68.58;100635.50;6306891;22;20014;-59
2022/09/09 09:36:09;;;;;;;8.25;2.10;;;;;;;17.38;68.51;100631.34;6305994;22;20007;-59
2022/09/09 09:38:36;;;;;;;9.20;2.15;;;;;;;17.33;69.04;100632.28;6307512;22;20316;-59
2022/09/09 09:41:02;;;;;;;7.07;2.08;;;;;;;17.40;68.79;100632.69;6306511;22;20386;-59
2022/09/09 09:43:30;;;;;;;7.70;1.88;;;;;;;17.41;68.50;100627.94;6306614;22;20034;-59
2022/09/09 09:45:57;;;;;;;8.43;2.30;;;;;;;17.45;69.68;100625.34;6306805;22;20094;-59
2022/09/09 09:48:23;;;;;;;11.95;2.20;;;;;;;17.48;69.93;100625.56;6305898;22;20018;-59
2022/09/09 09:50:54;;;;;;;7.10;1.88;;;;;;;17.52;69.40;100626.63;6305006;22;20014;-59
2022/09/09 09:53:23;;;;;;;;;;;;;;;17.60;68.52;100630.72;6308484;22;20107;-59
2022/09/09 09:55:58;;;;;;;16.60;2.60;;;;;;;17.48;68.85;100624.72;6307033;22;19994;-59
2022/09/09 09:58:26;;;;;;;10.45;2.45;;;;;;;17.41;69.32;100628.78;6305467;22;20010;-59
2022/09/09 10:00:53;;;;;;;10.57;2.00;;;;;;;17.37;69.73;100632.47;6307341;22;20042;-59
2022/09/09 10:03:23;;;;;;;11.75;2.08;;;;;;;17.38;69.71;100623.78;6305878;22;20086;-59
2022/09/09 10:05:48;;;;;;;9.27;2.00;;;;;;;17.39;71.05;100627.41;6304574;22;20316;-59
2022/09/09 10:08:16;;;;;;;9.88;2.75;;;;;;;17.40;70.91;100627.09;6305921;22;19999;-57
2022/09/09 10:10:55;;;;;;;9.10;2.28;;;;;;;17.42;70.96;100629.59;6304869;22;20101;-58
2022/09/09 10:13:33;;;;;;;8.32;2.00;;;;;;;17.40;71.34;100629.06;6304533;22;20007;-59
2022/09/09 10:16:06;;;;;;;6.10;2.00;;;;;;;17.43;71.77;100636.88;6307511;22;19999;-59
2022/09/09 10:18:38;;;;;;;6.57;2.10;;;;;;;17.39;71.37;100633.84;6305784;22;20003;-59
2022/09/09 10:21:32;;;;;;;7.65;2.35;;;;;;;17.41;70.89;100630.75;6304462;22;20039;-58
2022/09/09 10:24:39;;;;;;;6.60;1.70;;;;;;;17.40;71.34;100635.50;6305963;22;19999;-58
2022/09/09 10:27:14;;;;;;;9.48;1.98;;;;;;;17.39;72.00;100638.63;6303721;22;20003;-59
2022/09/09 10:29:57;;;;;;;6.70;2.10;;;;;;;17.35;71.61;100638.41;6306891;22;20092;-58
2022/09/09 10:32:45;;;;;;;6.55;2.20;;;;;;;17.37;71.67;100644.56;6304773;22;20039;-58
2022/09/09 10:35:26;;;;;;;10.40;2.15;;;;;;;17.35;71.73;100641.19;6305622;22;20007;-59
2022/09/09 10:38:13;;;;;;;14.50;2.45;;;;;;;17.34;72.34;100641.53;6304897;22;20056;-57
2022/09/09 10:40:59;;;;;;;9.20;2.13;;;;;;;17.30;71.94;100646.91;6302848;22;20014;-59
2022/09/09 10:43:53;;;;;;;8.55;2.40;;;;;;;17.27;72.33;100649.47;6304861;22;20003;-58
2022/09/09 10:46:36;;;;;;;9.15;2.50;;;;;;;17.24;72.27;100642.47;6304988;22;20050;-59
2022/09/09 10:49:33;;;;;;;6.57;1.90;;;;;;;17.27;72.34;100641.06;6303345;22;20094;-59
2022/09/09 10:52:34;;;;;;;11.95;2.80;;;;;;;17.27;72.22;100647.50;6306669;22;20358;-58
2022/09/09 10:55:09;;;;;;;8.98;2.30;;;;;;;17.21;73.45;100645.88;6304704;22;20038;-58
2022/09/09 10:57:47;;;;;;;8.38;2.13;;;;;;;17.28;73.34;100653.94;6305336;22;20007;-58
2022/09/09 11:00:40;;;;;;;9.73;1.90;;;;;;;17.30;72.47;100640.47;6306190;22;20007;-57
2022/09/09 11:03:07;;;;;;;7.00;2.00;;;;;;;17.27;73.85;100636.28;6285060;22;20007;-58
2022/09/09 11:05:42;;;;;;;9.35;2.28;;;;;;;17.29;73.49;100641.56;6306487;22;20007;-58
2022/09/09 11:08:17;;;;;;;5.00;1.83;;;;;;;17.34;73.77;100649.94;6303785;22;20476;-58
2022/09/09 11:10:58;;;;;;;10.23;2.25;;;;;;;17.31;73.28;100645.75;6306007;22;20018;-58
2022/09/09 11:13:34;;;;;;;7.90;2.00;;;;;;;17.34;73.68;100638.72;6305472;22;19999;-59
2022/09/09 11:16:05;;;;;;;6.80;2.40;;;;;;;17.38;74.39;100642.56;6304502;22;20070;-58
2022/09/09 11:18:35;;;;;;;5.37;1.97;;;;;;;17.40;73.02;100635.50;6306369;22;20006;-59
2022/09/09 11:21:03;;;;;;;5.78;2.33;;;;;;;17.41;73.71;100650.38;6305760;22;20272;-59
2022/09/09 11:23:42;;;;;;;7.93;2.50;;;;;;;17.43;74.06;100634.06;6303830;22;20030;-58
2022/09/09 11:26:15;;;;;;;8.52;2.72;;;;;;;17.41;74.69;100642.81;6305791;22;20006;-58
2022/09/09 11:28:47;;;;;;;5.70;2.00;;;;;;;17.41;74.05;100631.59;6306178;22;20411;-60
2022/09/09 11:31:34;;;;;;;7.43;1.98;;;;;;;17.42;73.74;100638.03;6303647;22;20004;-60
2022/09/09 11:34:15;;;;;;;9.32;2.50;;;;;;;17.41;73.84;100636.38;6307175;22;20039;-60
2022/09/09 11:36:59;;;;;;;5.88;1.90;;;;;;;17.38;73.39;100637.78;6305208;22;20010;-60
2022/09/09 11:39:30;;;;;;;6.07;1.95;;;;;;;17.35;73.43;100635.59;6306214;22;20461;-60
2022/09/09 11:42:13;;;;;;;6.97;2.00;;;;;;;17.32;73.27;100633.38;6304755;22;20030;-60
2022/09/09 11:44:40;;;;;;;4.80;1.80;;;;;;;17.31;73.39;100642.94;6304015;22;20088;-60
2022/09/09 11:47:30;;;;;;;5.03;2.00;;;;;;;17.32;73.19;100627.78;6305332;22;20007;-59